createdAt,value
2023-05-19T00:00:58.204Z,36.23
2023-05-19T00:01:59.750Z,36.08
2023-05-19T00:03:01.351Z,36.19
2023-05-19T00:04:03.082Z,36.19
2023-05-19T00:05:04.678Z,36.20
2023-05-19T00:06:06.193Z,35.96
2023-05-19T00:07:07.798Z,36.16
2023-05-19T00:08:09.284Z,36.32
2023-05-19T00:09:10.793Z,36.18
2023-05-19T00:10:12.318Z,36.20
2023-05-19T00:11:13.801Z,36.43
2023-05-19T00:12:15.354Z,36.04
2023-05-19T00:13:16.864Z,35.83
2023-05-19T00:14:18.340Z,35.88
2023-05-19T00:15:19.833Z,36.14
2023-05-19T00:16:21.469Z,35.93
2023-05-19T00:17:23.070Z,35.91
2023-05-19T00:18:24.540Z,36.11
2023-05-19T00:19:26.431Z,36.26
2023-05-19T00:20:28.066Z,35.88
2023-05-19T00:21:29.567Z,35.96
2023-05-19T00:22:31.089Z,36.20
2023-05-19T00:23:32.602Z,36.20
2023-05-19T00:24:34.105Z,36.14
2023-05-19T00:25:35.599Z,35.93
2023-05-19T00:26:37.137Z,35.99
2023-05-19T00:27:38.660Z,36.07
2023-05-19T00:28:40.170Z,35.99
2023-05-19T00:29:41.691Z,36.23
2023-05-19T00:30:43.189Z,36.00
2023-05-19T00:31:44.740Z,36.06
2023-05-19T00:32:46.303Z,36.41
2023-05-19T00:33:47.814Z,36.12
2023-05-19T00:34:49.316Z,35.99
2023-05-19T00:35:50.774Z,36.04
2023-05-19T00:36:52.275Z,36.23
2023-05-19T00:37:54.296Z,36.17
2023-05-19T00:38:55.912Z,36.00
2023-05-19T00:39:57.414Z,36.32
2023-05-19T00:40:58.916Z,35.99
2023-05-19T00:42:00.435Z,36.36
2023-05-19T00:43:01.968Z,36.10
2023-05-19T00:44:03.520Z,36.35
2023-05-19T00:45:05.031Z,36.01
2023-05-19T00:46:06.560Z,36.09
2023-05-19T00:47:08.328Z,36.34
2023-05-19T00:48:10.060Z,36.18
2023-05-19T00:49:11.595Z,36.10
2023-05-19T00:50:13.117Z,35.89
2023-05-19T00:51:14.687Z,36.42
2023-05-19T00:52:16.217Z,36.30
2023-05-19T00:53:17.780Z,36.44
2023-05-19T00:54:19.254Z,36.23
2023-05-19T00:55:20.869Z,36.42
2023-05-19T00:56:22.474Z,36.45
2023-05-19T00:57:23.986Z,36.51
2023-05-19T00:58:25.506Z,36.47
2023-05-19T00:59:26.976Z,36.41
2023-05-19T01:00:28.521Z,36.58
2023-05-19T01:01:30.233Z,36.57
2023-05-19T01:02:31.846Z,36.68
2023-05-19T01:03:33.490Z,36.53
2023-05-19T01:04:35.028Z,36.46
2023-05-19T01:05:36.511Z,36.53
2023-05-19T01:06:38.006Z,36.48
2023-05-19T01:07:39.511Z,36.53
2023-05-19T01:08:41.170Z,36.67
2023-05-19T01:09:42.700Z,36.40
2023-05-19T01:10:44.245Z,36.51
2023-05-19T01:11:45.780Z,36.48
2023-05-19T01:12:47.266Z,36.50
2023-05-19T01:13:48.870Z,36.64
2023-05-19T01:14:50.368Z,36.56
2023-05-19T01:15:51.913Z,36.63
2023-05-19T01:16:53.505Z,36.78
2023-05-19T01:17:55.149Z,36.54
2023-05-19T01:18:56.719Z,36.77
2023-05-19T01:19:58.251Z,36.56
2023-05-19T01:20:59.753Z,36.78
2023-05-19T01:22:01.329Z,36.73
2023-05-19T01:23:02.853Z,36.79
2023-05-19T01:24:04.376Z,36.91
2023-05-19T01:25:05.960Z,36.74
2023-05-19T01:26:07.463Z,37.10
2023-05-19T01:27:08.976Z,36.87
2023-05-19T01:28:10.486Z,36.79
2023-05-19T01:29:12.013Z,37.10
2023-05-19T01:30:13.553Z,37.05
2023-05-19T01:31:15.066Z,36.84
2023-05-19T01:32:16.725Z,37.07
2023-05-19T01:33:18.519Z,37.25
2023-05-19T01:34:20.096Z,36.94
2023-05-19T01:35:21.635Z,36.71
2023-05-19T01:36:23.142Z,37.04
2023-05-19T01:37:24.660Z,37.22
2023-05-19T01:38:26.155Z,36.99
2023-05-19T01:39:27.705Z,36.98
2023-05-19T01:40:29.445Z,37.19
2023-05-19T01:41:31.148Z,37.02
2023-05-19T01:42:33.322Z,37.29
2023-05-19T01:43:35.028Z,37.04
2023-05-19T01:44:36.611Z,37.31
2023-05-19T01:45:38.182Z,37.19
2023-05-19T01:46:39.794Z,37.06
2023-05-19T01:47:41.501Z,37.36
2023-05-19T01:48:43.042Z,37.56
2023-05-19T01:49:44.594Z,37.70
2023-05-19T01:50:46.150Z,37.53
2023-05-19T01:51:47.666Z,37.20
2023-05-19T01:52:52.168Z,37.63
2023-05-19T01:53:53.836Z,37.63
2023-05-19T01:54:55.477Z,37.66
2023-05-19T01:55:57.055Z,37.46
2023-05-19T01:56:58.776Z,37.91
2023-05-19T01:58:00.367Z,37.53
2023-05-19T01:59:01.928Z,37.63
2023-05-19T02:00:03.495Z,37.67
2023-05-19T02:01:05.104Z,37.68
2023-05-19T02:02:06.681Z,37.60
2023-05-19T02:03:08.374Z,37.62
2023-05-19T02:04:10.062Z,37.83
2023-05-19T02:05:11.706Z,37.72
2023-05-19T02:06:13.435Z,37.55
2023-05-19T02:07:14.992Z,37.61
2023-05-19T02:08:16.569Z,37.52
2023-05-19T02:09:18.525Z,37.57
2023-05-19T02:10:20.165Z,37.58
2023-05-19T02:11:21.725Z,37.64
2023-05-19T02:12:23.331Z,37.92
2023-05-19T02:13:25.047Z,38.03
2023-05-19T02:14:26.633Z,38.19
2023-05-19T02:15:28.378Z,37.71
2023-05-19T02:16:29.970Z,38.09
2023-05-19T02:17:31.687Z,38.03
2023-05-19T02:18:33.233Z,37.92
2023-05-19T02:19:34.859Z,38.14
2023-05-19T02:20:36.409Z,38.10
2023-05-19T02:21:37.999Z,37.99
2023-05-19T02:22:39.590Z,38.16
2023-05-19T02:23:41.090Z,38.25
2023-05-19T02:24:42.634Z,38.01
2023-05-19T02:25:44.143Z,37.85
2023-05-19T02:26:45.700Z,38.05
2023-05-19T02:27:47.236Z,38.14
2023-05-19T02:28:48.787Z,38.17
2023-05-19T02:29:50.428Z,38.31
2023-05-19T02:30:52.037Z,38.11
2023-05-19T02:31:53.614Z,38.30
2023-05-19T02:32:55.292Z,38.08
2023-05-19T02:33:56.931Z,38.15
2023-05-19T02:34:58.453Z,38.12
2023-05-19T02:35:59.999Z,38.14
2023-05-19T02:37:01.582Z,38.07
2023-05-19T02:38:03.126Z,38.34
2023-05-19T02:39:04.750Z,38.28
2023-05-19T02:40:06.285Z,38.31
2023-05-19T02:41:07.834Z,38.59
2023-05-19T02:42:09.399Z,38.35
2023-05-19T02:43:10.939Z,38.78
2023-05-19T02:44:12.619Z,38.41
2023-05-19T02:45:14.684Z,38.46
2023-05-19T02:46:16.259Z,38.60
2023-05-19T02:47:17.814Z,38.79
2023-05-19T02:48:19.359Z,38.47
2023-05-19T02:49:20.877Z,38.81
2023-05-19T02:50:22.545Z,38.55
2023-05-19T02:51:24.102Z,38.81
2023-05-19T02:52:25.829Z,38.45
2023-05-19T02:53:27.393Z,38.66
2023-05-19T02:54:28.908Z,38.55
2023-05-19T02:55:30.484Z,38.67
2023-05-19T02:56:31.999Z,38.74
2023-05-19T02:57:33.482Z,38.58
2023-05-19T02:58:34.983Z,38.86
2023-05-19T02:59:36.528Z,38.64
2023-05-19T03:00:38.045Z,38.69
2023-05-19T03:01:39.658Z,38.71
2023-05-19T03:02:41.383Z,38.37
2023-05-19T03:03:43.071Z,38.46
2023-05-19T03:04:44.664Z,38.38
2023-05-19T03:05:46.276Z,38.40
2023-05-19T03:06:47.777Z,38.47
2023-05-19T03:07:49.310Z,38.66
2023-05-19T03:08:50.882Z,38.24
2023-05-19T03:09:52.523Z,38.60
2023-05-19T03:10:54.108Z,38.54
2023-05-19T03:11:55.686Z,38.65
2023-05-19T03:12:57.187Z,38.69
2023-05-19T03:13:58.699Z,38.51
2023-05-19T03:15:00.339Z,38.58
2023-05-19T03:16:01.909Z,38.75
2023-05-19T03:17:03.494Z,38.73
2023-05-19T03:18:05.210Z,38.79
2023-05-19T03:19:06.771Z,38.68
2023-05-19T03:20:08.291Z,38.51
2023-05-19T03:21:09.818Z,38.71
2023-05-19T03:22:11.376Z,38.60
2023-05-19T03:23:12.924Z,39.06
2023-05-19T03:24:14.494Z,38.94
2023-05-19T03:25:16.093Z,38.78
2023-05-19T03:26:17.694Z,38.73
2023-05-19T03:27:19.224Z,39.08
2023-05-19T03:28:20.745Z,38.90
2023-05-19T03:29:22.305Z,38.57
2023-05-19T03:30:23.806Z,38.92
2023-05-19T03:31:25.350Z,38.52
2023-05-19T03:32:26.984Z,39.08
2023-05-19T03:33:28.670Z,38.93
2023-05-19T03:34:30.244Z,38.88
2023-05-19T03:35:31.771Z,38.83
2023-05-19T03:36:33.370Z,38.73
2023-05-19T03:37:34.946Z,39.00
2023-05-19T03:38:36.497Z,39.04
2023-05-19T03:39:37.999Z,38.82
2023-05-19T03:40:39.553Z,39.31
2023-05-19T03:41:41.125Z,39.02
2023-05-19T03:42:42.670Z,39.08
2023-05-19T03:43:44.177Z,39.02
2023-05-19T03:44:45.675Z,38.96
2023-05-19T03:45:47.258Z,38.92
2023-05-19T03:46:48.910Z,39.09
2023-05-19T03:47:50.580Z,38.68
2023-05-19T03:48:52.218Z,39.01
2023-05-19T03:49:53.769Z,38.92
2023-05-19T03:50:55.367Z,39.33
2023-05-19T03:51:57.359Z,39.03
2023-05-19T03:52:59.015Z,38.73
2023-05-19T03:54:00.544Z,39.12
2023-05-19T03:55:02.069Z,39.10
2023-05-19T03:56:03.585Z,38.94
2023-05-19T03:57:05.105Z,39.08
2023-05-19T03:58:06.608Z,39.31
2023-05-19T03:59:08.159Z,38.93
2023-05-19T04:00:09.681Z,39.15
2023-05-19T04:01:11.225Z,38.99
2023-05-19T04:02:12.794Z,39.07
2023-05-19T04:03:14.490Z,39.05
2023-05-19T04:04:16.069Z,39.17
2023-05-19T04:05:17.615Z,38.99
2023-05-19T04:06:19.169Z,39.10
2023-05-19T04:07:20.734Z,39.12
2023-05-19T04:08:22.296Z,38.95
2023-05-19T04:09:23.877Z,39.20
2023-05-19T04:10:25.421Z,39.01
2023-05-19T04:11:26.924Z,39.18
2023-05-19T04:12:28.491Z,38.91
2023-05-19T04:13:30.030Z,39.20
2023-05-19T04:14:31.642Z,39.03
2023-05-19T04:15:33.183Z,38.83
2023-05-19T04:16:34.702Z,39.10
2023-05-19T04:17:36.212Z,39.39
2023-05-19T04:18:37.743Z,39.22
2023-05-19T04:19:39.391Z,39.46
2023-05-19T04:20:40.894Z,39.32
2023-05-19T04:21:42.424Z,39.22
2023-05-19T04:22:43.942Z,39.35
2023-05-19T04:23:45.465Z,39.44
2023-05-19T04:24:46.953Z,39.29
2023-05-19T04:25:48.445Z,39.26
2023-05-19T04:26:49.904Z,39.05
2023-05-19T04:27:51.660Z,39.39
2023-05-19T04:28:53.189Z,39.43
2023-05-19T04:29:54.761Z,39.47
2023-05-19T04:30:56.336Z,39.50
2023-05-19T04:31:57.857Z,39.31
2023-05-19T04:32:59.398Z,39.45
2023-05-19T04:34:00.875Z,39.15
2023-05-19T04:35:02.457Z,39.57
2023-05-19T04:36:03.960Z,39.64
2023-05-19T04:37:05.519Z,39.53
2023-05-19T04:38:07.040Z,39.64
2023-05-19T04:39:08.627Z,39.56
2023-05-19T04:40:10.142Z,39.69
2023-05-19T04:41:11.654Z,39.74
2023-05-19T04:42:13.155Z,39.82
2023-05-19T04:43:14.680Z,39.73
2023-05-19T04:44:16.150Z,39.55
2023-05-19T04:45:17.686Z,39.46
2023-05-19T04:46:19.217Z,39.61
2023-05-19T04:47:20.806Z,39.50
2023-05-19T04:48:22.409Z,39.75
2023-05-19T04:49:23.909Z,39.85
2023-05-19T04:50:25.510Z,39.88
2023-05-19T04:51:27.091Z,39.71
2023-05-19T04:52:28.691Z,39.95
2023-05-19T04:53:30.323Z,39.85
2023-05-19T04:54:31.845Z,39.94
2023-05-19T04:55:33.771Z,39.60
2023-05-19T04:56:35.340Z,40.09
2023-05-19T04:57:37.900Z,40.14
2023-05-19T04:58:41.836Z,40.12
2023-05-19T04:59:43.488Z,40.07
2023-05-19T05:00:45.125Z,40.25
2023-05-19T05:01:46.799Z,40.03
2023-05-19T05:02:48.419Z,40.16
2023-05-19T05:03:50.095Z,40.11
2023-05-19T05:04:51.649Z,40.08
2023-05-19T05:05:53.186Z,40.20
2023-05-19T05:06:54.695Z,39.94
2023-05-19T05:07:56.181Z,40.40
2023-05-19T05:08:57.758Z,40.36
2023-05-19T05:09:59.240Z,40.21
2023-05-19T05:11:00.780Z,40.17
2023-05-19T05:12:02.368Z,40.37
2023-05-19T05:13:06.308Z,40.24
2023-05-19T05:14:07.959Z,40.02
2023-05-19T05:15:09.544Z,40.15
2023-05-19T05:16:11.110Z,40.33
2023-05-19T05:17:12.716Z,40.05
2023-05-19T05:18:14.268Z,40.33
2023-05-19T05:19:15.852Z,40.18
2023-05-19T05:20:17.405Z,40.24
2023-05-19T05:21:18.946Z,40.37
2023-05-19T05:22:20.538Z,40.23
2023-05-19T05:23:22.140Z,40.06
2023-05-19T05:24:23.765Z,40.09
2023-05-19T05:25:25.345Z,40.32
2023-05-19T05:26:26.906Z,40.45
2023-05-19T05:27:28.476Z,40.41
2023-05-19T05:28:30.036Z,40.59
2023-05-19T05:29:31.571Z,40.58
2023-05-19T05:30:33.189Z,40.27
2023-05-19T05:31:34.798Z,40.33
2023-05-19T05:32:36.455Z,40.35
2023-05-19T05:33:38.246Z,40.15
2023-05-19T05:34:39.949Z,40.07
2023-05-19T05:35:41.657Z,39.95
2023-05-19T05:36:43.368Z,40.09
2023-05-19T05:37:45.279Z,40.05
2023-05-19T05:38:46.869Z,40.19
2023-05-19T05:39:48.588Z,40.20
2023-05-19T05:40:50.122Z,40.29
2023-05-19T05:41:51.769Z,40.10
2023-05-19T05:42:53.311Z,40.00
2023-05-19T05:43:54.805Z,39.79
2023-05-19T05:44:56.379Z,40.24
2023-05-19T05:45:58.199Z,40.44
2023-05-19T05:46:59.839Z,40.43
2023-05-19T05:48:01.518Z,39.92
2023-05-19T05:49:03.098Z,40.02
2023-05-19T05:50:04.625Z,40.12
2023-05-19T05:51:06.225Z,40.00
2023-05-19T05:52:07.744Z,39.98
2023-05-19T05:53:09.262Z,40.01
2023-05-19T05:54:10.731Z,39.60
2023-05-19T05:55:12.276Z,39.76
2023-05-19T05:56:13.835Z,40.02
2023-05-19T05:57:15.376Z,39.75
2023-05-19T05:58:16.862Z,40.03
2023-05-19T05:59:18.362Z,39.81
2023-05-19T06:00:19.898Z,39.67
2023-05-19T06:01:21.415Z,39.73
2023-05-19T06:02:22.934Z,39.79
2023-05-19T06:03:24.726Z,40.05
2023-05-19T06:04:26.362Z,39.73
2023-05-19T06:05:27.945Z,39.81
2023-05-19T06:06:29.500Z,40.04
2023-05-19T06:07:31.051Z,39.43
2023-05-19T06:08:32.545Z,39.79
2023-05-19T06:09:34.061Z,39.48
2023-05-19T06:10:35.844Z,39.73
2023-05-19T06:11:37.754Z,39.26
2023-05-19T06:12:39.280Z,39.51
2023-05-19T06:13:40.770Z,39.60
2023-05-19T06:14:42.273Z,39.44
2023-05-19T06:15:43.761Z,39.34
2023-05-19T06:16:45.289Z,39.36
2023-05-19T06:17:47.221Z,39.63
2023-05-19T06:18:48.786Z,39.35
2023-05-19T06:19:50.341Z,39.20
2023-05-19T06:20:51.865Z,39.33
2023-05-19T06:21:53.471Z,39.13
2023-05-19T06:22:55.000Z,39.00
2023-05-19T06:23:56.525Z,39.35
2023-05-19T06:24:58.133Z,39.22
2023-05-19T06:25:59.649Z,39.12
2023-05-19T06:27:01.186Z,39.28
2023-05-19T06:28:02.683Z,39.13
2023-05-19T06:29:04.178Z,39.33
2023-05-19T06:30:05.725Z,38.59
2023-05-19T06:31:07.285Z,39.09
2023-05-19T06:32:08.819Z,39.03
2023-05-19T06:33:10.405Z,38.99
2023-05-19T06:34:11.915Z,38.71
2023-05-19T06:35:13.423Z,38.89
2023-05-19T06:36:14.920Z,38.61
2023-05-19T06:37:16.427Z,38.64
2023-05-19T06:38:18.030Z,38.68
2023-05-19T06:39:19.539Z,38.75
2023-05-19T06:40:21.080Z,38.42
2023-05-19T06:41:22.600Z,38.59
2023-05-19T06:42:24.134Z,38.36
2023-05-19T06:43:25.627Z,38.39
2023-05-19T06:44:27.163Z,38.82
2023-05-19T06:45:28.691Z,38.46
2023-05-19T06:46:30.244Z,38.23
2023-05-19T06:47:31.764Z,38.05
2023-05-19T06:48:33.289Z,37.94
2023-05-19T06:49:34.766Z,37.70
2023-05-19T06:50:36.281Z,37.97
2023-05-19T06:51:37.792Z,37.42
2023-05-19T06:52:39.274Z,37.58
2023-05-19T06:53:40.770Z,37.12
2023-05-19T06:54:42.262Z,37.48
2023-05-19T06:55:57.482Z,37.29
2023-05-19T06:57:00.007Z,37.23
2023-05-19T06:58:01.465Z,37.00
2023-05-19T06:59:02.940Z,36.82
2023-05-19T07:00:04.464Z,37.07
2023-05-19T07:01:06.575Z,36.76
2023-05-19T07:02:08.251Z,36.64
2023-05-19T07:03:10.067Z,36.81
2023-05-19T07:04:11.616Z,36.85
2023-05-19T07:05:13.128Z,36.35
2023-05-19T07:06:14.670Z,36.30
2023-05-19T07:07:16.185Z,36.42
2023-05-19T07:08:17.689Z,36.34
2023-05-19T07:09:19.171Z,36.54
2023-05-19T07:10:21.079Z,36.27
2023-05-19T07:11:22.629Z,36.25
2023-05-19T07:12:24.114Z,35.56
2023-05-19T07:13:27.350Z,35.67
2023-05-19T07:14:29.167Z,36.12
2023-05-19T07:15:30.636Z,36.02
2023-05-19T07:16:32.226Z,35.67
2023-05-19T07:17:33.755Z,35.52
2023-05-19T07:18:35.254Z,35.67
2023-05-19T07:19:36.744Z,35.42
2023-05-19T07:20:38.278Z,35.20
2023-05-19T07:21:39.794Z,34.96
2023-05-19T07:22:41.277Z,34.72
2023-05-19T07:23:42.795Z,34.35
2023-05-19T07:24:44.292Z,34.79
2023-05-19T07:25:45.936Z,33.93
2023-05-19T07:26:47.476Z,34.35
2023-05-19T07:27:48.950Z,34.07
2023-05-19T07:28:50.486Z,33.36
2023-05-19T07:29:52.018Z,33.24
2023-05-19T07:30:53.515Z,33.61
2023-05-19T07:31:55.064Z,33.15
2023-05-19T07:32:56.682Z,33.64
2023-05-19T07:33:58.234Z,33.54
2023-05-19T07:34:59.774Z,33.65
2023-05-19T07:36:01.274Z,33.59
2023-05-19T07:37:02.834Z,33.56
2023-05-19T07:38:04.411Z,33.74
2023-05-19T07:39:05.936Z,33.49
2023-05-19T07:40:07.485Z,33.11
2023-05-19T07:41:09.029Z,33.15
2023-05-19T07:42:10.585Z,33.19
2023-05-19T07:43:12.089Z,32.82
2023-05-19T07:44:13.593Z,32.71
2023-05-19T07:45:15.090Z,32.63
2023-05-19T07:46:16.633Z,32.62
2023-05-19T07:47:18.216Z,32.29
2023-05-19T07:48:19.690Z,32.23
2023-05-19T07:49:21.172Z,32.55
2023-05-19T07:50:22.690Z,31.94
2023-05-19T07:51:24.195Z,32.19
2023-05-19T07:52:25.966Z,31.78
2023-05-19T07:53:27.441Z,31.36
2023-05-19T07:54:28.964Z,31.51
2023-05-19T07:55:30.460Z,31.61
2023-05-19T07:56:31.919Z,30.83
2023-05-19T07:57:33.478Z,30.92
2023-05-19T07:58:34.967Z,31.33
2023-05-19T07:59:36.464Z,30.21
2023-05-19T08:00:37.957Z,30.27
2023-05-19T08:01:39.448Z,29.96
2023-05-19T08:02:41.512Z,30.12
2023-05-19T08:03:43.167Z,30.10
2023-05-19T08:04:44.877Z,29.84
2023-05-19T08:05:46.467Z,29.63
2023-05-19T08:06:47.954Z,29.20
2023-05-19T08:07:49.478Z,29.37
2023-05-19T08:08:51.016Z,28.79
2023-05-19T08:09:52.489Z,28.36
2023-05-19T08:10:53.992Z,28.62
2023-05-19T08:11:55.510Z,28.62
2023-05-19T08:12:57.115Z,29.15
2023-05-19T08:13:58.631Z,28.92
2023-05-19T08:15:01.451Z,29.57
2023-05-19T08:16:03.385Z,29.26
2023-05-19T08:17:04.924Z,29.29
2023-05-19T08:18:06.563Z,28.55
2023-05-19T08:19:08.109Z,29.19
2023-05-19T08:20:09.623Z,28.45
2023-05-19T08:21:11.167Z,28.63
2023-05-19T08:22:12.659Z,28.20
2023-05-19T08:23:14.174Z,27.26
2023-05-19T08:24:15.658Z,27.68
2023-05-19T08:25:17.152Z,26.98
2023-05-19T08:26:18.669Z,27.20
2023-05-19T08:27:20.185Z,26.68
2023-05-19T08:28:21.731Z,26.40
2023-05-19T08:29:23.255Z,26.95
2023-05-19T08:30:24.792Z,26.96
2023-05-19T08:31:26.342Z,27.04
2023-05-19T08:32:27.938Z,26.63
2023-05-19T08:33:29.529Z,26.82
2023-05-19T08:34:31.005Z,26.91
2023-05-19T08:35:32.508Z,27.03
2023-05-19T08:36:34.063Z,27.11
2023-05-19T08:37:35.564Z,26.91
2023-05-19T08:38:37.075Z,26.91
2023-05-19T08:39:38.579Z,27.09
2023-05-19T08:40:40.078Z,26.76
2023-05-19T08:41:41.564Z,26.86
2023-05-19T08:42:43.070Z,26.39
2023-05-19T08:43:44.591Z,26.71
2023-05-19T08:44:46.096Z,26.57
2023-05-19T08:45:47.673Z,26.82
2023-05-19T08:46:49.244Z,26.39
2023-05-19T08:47:50.865Z,26.62
2023-05-19T08:48:52.419Z,26.57
2023-05-19T08:49:53.912Z,27.20
2023-05-19T08:50:55.399Z,27.00
2023-05-19T08:51:56.932Z,26.94
2023-05-19T08:52:58.424Z,27.05
2023-05-19T08:53:59.909Z,27.29
2023-05-19T08:55:01.427Z,26.97
2023-05-19T08:56:02.991Z,26.65
2023-05-19T08:57:04.528Z,26.80
2023-05-19T08:58:06.021Z,27.24
2023-05-19T08:59:07.508Z,26.85
2023-05-19T09:00:08.985Z,26.96
2023-05-19T09:01:10.513Z,26.91
2023-05-19T09:02:12.148Z,27.03
2023-05-19T09:03:22.782Z,27.26
2023-05-19T09:04:26.017Z,27.97
2023-05-19T09:05:28.183Z,27.92
2023-05-19T09:06:29.779Z,27.85
2023-05-19T09:07:31.317Z,27.79
2023-05-19T09:08:32.833Z,27.62
2023-05-19T09:09:34.364Z,26.96
2023-05-19T09:10:35.848Z,27.17
2023-05-19T09:11:37.353Z,27.87
2023-05-19T09:12:38.886Z,27.18
2023-05-19T09:13:40.385Z,27.87
2023-05-19T09:14:41.854Z,27.85
2023-05-19T09:15:43.372Z,27.57
2023-05-19T09:16:44.897Z,28.22
2023-05-19T09:17:46.499Z,28.42
2023-05-19T09:18:48.067Z,28.24
2023-05-19T09:19:49.610Z,27.88
2023-05-19T09:20:51.130Z,27.51
2023-05-19T09:21:52.655Z,28.35
2023-05-19T09:22:54.235Z,28.11
2023-05-19T09:23:55.741Z,27.77
2023-05-19T09:24:57.230Z,27.73
2023-05-19T09:25:58.742Z,27.98
2023-05-19T09:27:00.551Z,27.67
2023-05-19T09:28:02.146Z,28.30
2023-05-19T09:29:03.655Z,28.21
2023-05-19T09:30:05.172Z,28.03
2023-05-19T09:31:06.755Z,27.88
2023-05-19T09:32:08.387Z,27.18
2023-05-19T09:33:10.081Z,27.22
2023-05-19T09:34:11.743Z,27.14
2023-05-19T09:35:13.207Z,26.94
2023-05-19T09:36:14.767Z,26.42
2023-05-19T09:37:16.335Z,26.39
2023-05-19T09:38:17.863Z,26.90
2023-05-19T09:39:19.391Z,26.41
2023-05-19T09:40:20.901Z,26.55
2023-05-19T09:41:22.397Z,26.48
2023-05-19T09:42:23.900Z,26.92
2023-05-19T09:43:25.392Z,26.40
2023-05-19T09:44:26.932Z,26.95
2023-05-19T09:45:28.453Z,26.83
2023-05-19T09:46:29.986Z,26.26
2023-05-19T09:47:31.557Z,26.22
2023-05-19T09:48:33.055Z,26.25
2023-05-19T09:49:34.562Z,26.39
2023-05-19T09:50:36.124Z,25.96
2023-05-19T09:51:37.685Z,26.62
2023-05-19T09:52:39.216Z,26.63
2023-05-19T09:53:40.716Z,26.60
2023-05-19T09:54:42.276Z,26.78
2023-05-19T09:55:43.785Z,26.70
2023-05-19T09:56:45.265Z,26.39
2023-05-19T09:57:46.770Z,26.26
2023-05-19T09:58:48.288Z,26.85
2023-05-19T09:59:49.983Z,26.47
2023-05-19T10:00:51.518Z,26.54
2023-05-19T10:01:53.125Z,26.92
2023-05-19T10:02:54.870Z,26.77
2023-05-19T10:03:56.607Z,26.62
2023-05-19T10:04:58.538Z,26.84
2023-05-19T10:06:00.124Z,26.80
2023-05-19T10:07:01.675Z,26.73
2023-05-19T10:08:03.228Z,26.60
2023-05-19T10:09:04.691Z,26.83
2023-05-19T10:10:06.199Z,25.81
2023-05-19T10:11:07.713Z,26.04
2023-05-19T10:12:09.300Z,26.08
2023-05-19T10:13:10.856Z,26.36
2023-05-19T10:14:12.338Z,26.16
2023-05-19T10:15:13.862Z,26.72
2023-05-19T10:16:15.403Z,26.42
2023-05-19T10:17:16.947Z,26.03
2023-05-19T10:18:18.464Z,26.19
2023-05-19T10:19:19.964Z,25.64
2023-05-19T10:20:21.605Z,26.14
2023-05-19T10:21:23.091Z,26.24
2023-05-19T10:22:24.593Z,25.62
2023-05-19T10:23:26.185Z,25.60
2023-05-19T10:24:27.769Z,25.44
2023-05-19T10:25:29.329Z,25.52
2023-05-19T10:26:30.847Z,25.58
2023-05-19T10:27:32.328Z,25.50
2023-05-19T10:28:33.826Z,25.85
2023-05-19T10:29:35.366Z,26.01
2023-05-19T10:30:36.974Z,26.01
2023-05-19T10:31:38.568Z,25.86
2023-05-19T10:32:40.126Z,26.53
2023-05-19T10:33:41.675Z,26.55
2023-05-19T10:34:43.202Z,26.41
2023-05-19T10:35:46.011Z,26.02
2023-05-19T10:36:48.677Z,25.80
2023-05-19T10:37:50.219Z,26.39
2023-05-19T10:38:51.734Z,26.04
2023-05-19T10:39:53.308Z,25.88
2023-05-19T10:40:54.957Z,26.55
2023-05-19T10:41:56.471Z,26.35
2023-05-19T10:42:57.980Z,26.55
2023-05-19T10:44:00.155Z,26.31
2023-05-19T10:45:01.648Z,26.68
2023-05-19T10:46:03.237Z,26.23
2023-05-19T10:47:04.729Z,26.47
2023-05-19T10:48:06.292Z,26.78
2023-05-19T10:49:07.998Z,26.75
2023-05-19T10:50:09.562Z,26.36
2023-05-19T10:51:11.715Z,26.19
2023-05-19T10:52:13.304Z,26.79
2023-05-19T10:53:14.830Z,27.13
2023-05-19T10:54:16.375Z,27.30
2023-05-19T10:55:17.966Z,27.00
2023-05-19T10:56:19.610Z,27.44
2023-05-19T10:57:21.164Z,27.13
2023-05-19T10:58:22.659Z,27.31
2023-05-19T10:59:24.159Z,27.18
2023-05-19T11:00:25.697Z,27.04
2023-05-19T11:01:27.264Z,27.32
2023-05-19T11:02:28.847Z,26.80
2023-05-19T11:04:32.484Z,27.06
2023-05-19T11:05:34.356Z,26.43
2023-05-19T11:06:36.110Z,25.83
2023-05-19T11:07:37.998Z,26.36
2023-05-19T11:08:39.531Z,26.50
2023-05-19T11:09:41.150Z,26.33
2023-05-19T11:10:42.751Z,26.89
2023-05-19T11:11:44.317Z,26.02
2023-05-19T11:12:46.556Z,26.06
2023-05-19T11:13:48.053Z,26.03
2023-05-19T11:14:49.575Z,26.29
2023-05-19T11:15:51.086Z,25.93
2023-05-19T11:16:52.671Z,25.88
2023-05-19T11:17:54.233Z,25.78
2023-05-19T11:18:55.719Z,26.11
2023-05-19T11:19:57.289Z,25.52
2023-05-19T11:20:58.841Z,26.09
2023-05-19T11:22:00.351Z,25.50
2023-05-19T11:23:01.939Z,25.82
2023-05-19T11:24:03.529Z,25.89
2023-05-19T11:25:05.096Z,25.30
2023-05-19T11:26:06.602Z,25.73
2023-05-19T11:27:08.171Z,25.77
2023-05-19T11:28:09.730Z,25.54
2023-05-19T11:29:11.224Z,25.50
2023-05-19T11:30:12.751Z,25.43
2023-05-19T11:31:14.255Z,25.15
2023-05-19T11:32:15.749Z,25.64
2023-05-19T11:33:17.361Z,25.30
2023-05-19T11:34:18.912Z,25.59
2023-05-19T11:35:20.439Z,25.46
2023-05-19T11:36:21.926Z,25.44
2023-05-19T11:37:23.444Z,25.71
2023-05-19T11:38:24.957Z,25.41
2023-05-19T11:39:26.459Z,24.73
2023-05-19T11:40:27.939Z,24.85
2023-05-19T11:41:29.458Z,25.09
2023-05-19T11:42:30.970Z,24.50
2023-05-19T11:43:32.553Z,24.72
2023-05-19T11:44:34.055Z,24.76
2023-05-19T11:45:35.935Z,24.53
2023-05-19T11:46:37.917Z,24.29
2023-05-19T11:47:56.519Z,24.26
2023-05-19T11:49:00.937Z,24.68
2023-05-19T11:50:02.401Z,25.00
2023-05-19T11:51:04.237Z,24.91
2023-05-19T11:52:05.793Z,24.73
2023-05-19T11:53:07.345Z,24.84
2023-05-19T11:54:08.888Z,24.45
2023-05-19T11:55:10.423Z,24.37
2023-05-19T11:56:11.906Z,24.55
2023-05-19T11:57:13.410Z,24.92
2023-05-19T11:58:15.180Z,24.44
2023-05-19T11:59:16.695Z,24.51
2023-05-19T12:00:18.187Z,24.57
2023-05-19T12:01:19.694Z,23.98
2023-05-19T12:02:21.224Z,24.40
2023-05-19T12:03:22.882Z,23.99
2023-05-19T12:04:24.501Z,23.87
2023-05-19T12:05:26.143Z,23.98
2023-05-19T12:06:27.740Z,24.07
2023-05-19T12:07:29.278Z,24.04
2023-05-19T12:08:30.765Z,24.21
2023-05-19T12:09:32.246Z,24.31
2023-05-19T12:10:33.767Z,24.53
2023-05-19T12:11:35.285Z,24.00
2023-05-19T12:12:36.761Z,24.52
2023-05-19T12:13:38.291Z,23.88
2023-05-19T12:14:39.854Z,24.20
2023-05-19T12:15:41.356Z,24.02
2023-05-19T12:16:42.972Z,23.86
2023-05-19T12:17:44.530Z,24.07
2023-05-19T12:18:46.129Z,23.80
2023-05-19T12:19:47.694Z,24.46
2023-05-19T12:20:49.624Z,24.37
2023-05-19T12:21:51.152Z,24.28
2023-05-19T12:22:52.691Z,24.47
2023-05-19T12:23:54.187Z,24.42
2023-05-19T12:24:55.690Z,24.42
2023-05-19T12:25:57.208Z,24.14
2023-05-19T12:26:58.692Z,24.42
2023-05-19T12:28:00.214Z,23.83
2023-05-19T12:29:01.793Z,24.34
2023-05-19T12:30:03.355Z,24.27
2023-05-19T12:31:04.890Z,24.37
2023-05-19T12:32:06.432Z,24.64
2023-05-19T12:33:08.008Z,24.64
2023-05-19T12:34:09.505Z,24.57
2023-05-19T12:35:11.042Z,24.56
2023-05-19T12:36:12.531Z,24.42
2023-05-19T12:37:14.011Z,24.94
2023-05-19T12:38:15.498Z,24.89
2023-05-19T12:39:18.013Z,24.21
2023-05-19T12:40:20.390Z,24.73
2023-05-19T12:41:21.925Z,24.88
2023-05-19T12:42:23.436Z,24.58
2023-05-19T12:43:25.015Z,24.36
2023-05-19T12:44:26.517Z,24.62
2023-05-19T12:45:28.083Z,24.64
2023-05-19T12:46:29.770Z,24.90
2023-05-19T12:47:31.453Z,24.65
2023-05-19T12:48:33.061Z,24.65
2023-05-19T12:49:34.571Z,24.54
2023-05-19T12:50:36.197Z,24.71
2023-05-19T12:51:37.852Z,24.49
2023-05-19T12:52:39.386Z,24.82
2023-05-19T12:53:40.917Z,24.39
2023-05-19T12:54:42.534Z,24.15
2023-05-19T12:55:44.177Z,24.02
2023-05-19T12:56:45.687Z,24.29
2023-05-19T12:57:48.580Z,24.28
2023-05-19T12:58:50.840Z,24.75
2023-05-19T12:59:52.348Z,24.35
2023-05-19T13:00:53.931Z,24.29
2023-05-19T13:01:55.542Z,24.70
2023-05-19T13:02:57.244Z,24.50
2023-05-19T13:03:59.073Z,24.97
2023-05-19T13:05:00.707Z,25.36
2023-05-19T13:06:02.263Z,24.72
2023-05-19T13:07:03.783Z,24.96
2023-05-19T13:08:05.353Z,24.76
2023-05-19T13:09:06.937Z,25.03
2023-05-19T13:10:08.473Z,24.69
2023-05-19T13:11:10.061Z,25.00
2023-05-19T13:12:11.559Z,24.28
2023-05-19T13:13:13.178Z,24.71
2023-05-19T13:14:14.713Z,24.70
2023-05-19T13:15:16.215Z,25.05